KCHK

Chickasha Municipal Airport

Chickasha, Oklahoma, USA
METAR KCHK 171355Z AUTO 28005KT 10SM CLR M02/M03 A3027 RMK AO2 T10191033
Observed Flight Rules
Dec-17 @ 13:55 UTC (34 minutes ago) Visual Flight Rules
Wind Visibility Clouds
280° at 5 knots 10 miles
  • Clear skies
Temperatures Readings
Current -2°C / 28°F
Dewpoint -3°C / 27°F
Humidity 93%
Altimeter 30.27" Hg
Pressure 1025 hPa
Elevation 351
METAR KCHK 171355Z AUTO 28005KT 10SM CLR M02/M03 A3027 RMK AO2 T10191033
Observed Flight Rules
Dec-17 @ 13:55 UTC
(34 minutes ago)
VFR
Wind Visibility
280° at 5 knots 10 miles
Clouds
  • Clear skies
Temperature Dewpoint
-2°C / 28°F -3°C / 27°F
Humidity Altimeter Pressure
93% 30.27" Hg 1025 hPa